Terminal Aerodrome Forecast
Issued by NWS Northern Indiana

Home | Current Version | Previous Version | Graphics & Text | Print | Product List | Glossary On
Versions: 1 2 3 4 5 6 7 8 9 10 11 12 13 14 15
603
FTUS43 KIWX 031040 AAA
TAFFWA
TAF AMD
KFWA 031040Z 0311/0406 23011KT P6SM BKN008
     FM031300 22013KT P6SM SCT015
     FM031600 24020G30KT P6SM SCT025
     FM032300 26014KT P6SM BKN025=

USA.gov is the U.S. government's official web portal to all federal, state and local government web resources and services.